Time;durP1;ratioP1;P1;durP2;ratioP2;P2;SDS_P1;SDS_P2;PMS_P1;PMS_P2;Temp;Humidity;BMP_temperature;BMP_pressure;BME280_temperature;BME280_humidity;BME280_pressure;Samples;Min_cycle;Max_cycle;Signal;HPM_P1;HPM_P2
2023/10/30 00:00:49;;;;;;;6.72;2.17;;;;;;;15.36;100.00;99786.06;5092388;28;20060;-46
2023/10/30 00:03:18;;;;;;;5.88;1.95;;;;;;;15.37;100.00;99788.59;5092277;28;20382;-45
2023/10/30 00:05:46;;;;;;;7.85;2.08;;;;;;;15.40;100.00;99784.78;5092208;28;20093;-47
2023/10/30 00:08:16;;;;;;;5.97;2.30;;;;;;;15.39;100.00;99792.00;5092024;28;20044;-46
2023/10/30 00:10:44;;;;;;;7.60;1.90;;;;;;;15.41;100.00;99792.72;5092193;28;20044;-47
2023/10/30 00:13:12;;;;;;;4.32;1.92;;;;;;;15.43;100.00;99792.56;5092128;28;20056;-45
2023/10/30 00:15:41;;;;;;;5.47;2.08;;;;;;;15.43;100.00;99790.75;5092225;28;20048;-46
2023/10/30 00:18:10;;;;;;;6.35;1.83;;;;;;;15.46;100.00;99790.50;5091683;28;20048;-47
2023/10/30 00:20:40;;;;;;;3.42;1.70;;;;;;;15.44;100.00;99792.47;5091805;28;20443;-46
2023/10/30 00:23:08;;;;;;;4.43;1.83;;;;;;;15.43;100.00;99793.44;5091075;28;20048;-46
2023/10/30 00:25:37;;;;;;;8.95;2.22;;;;;;;15.46;100.00;99795.03;5091887;28;20067;-46
2023/10/30 00:28:05;;;;;;;8.65;2.13;;;;;;;15.45;100.00;99794.16;5091746;28;20090;-46
2023/10/30 00:30:34;;;;;;;3.85;1.80;;;;;;;15.44;100.00;99789.78;5091647;28;20075;-45
2023/10/30 00:33:02;;;;;;;8.45;1.90;;;;;;;15.40;100.00;99791.00;5091600;28;20044;-45
2023/10/30 00:35:32;;;;;;;6.20;1.80;;;;;;;15.44;100.00;99791.59;5091586;28;20508;-46
2023/10/30 00:38:00;;;;;;;6.70;2.30;;;;;;;15.41;100.00;99795.41;5091763;28;20433;-46
2023/10/30 00:40:29;;;;;;;5.82;2.20;;;;;;;15.36;100.00;99791.44;5091569;28;20486;-45
2023/10/30 00:42:57;;;;;;;4.07;1.98;;;;;;;15.39;100.00;99786.63;5091567;28;20465;-47
2023/10/30 00:45:26;;;;;;;4.32;1.70;;;;;;;15.39;100.00;99786.63;5091487;28;20093;-45
2023/10/30 00:47:54;;;;;;;4.78;1.90;;;;;;;15.39;100.00;99781.25;5091389;28;20481;-46
2023/10/30 00:50:23;;;;;;;6.15;1.95;;;;;;;15.37;100.00;99780.53;5091236;28;20078;-45
2023/10/30 00:52:53;;;;;;;5.05;1.75;;;;;;;15.37;100.00;99775.16;5091835;28;20465;-45
2023/10/30 00:55:22;;;;;;;6.20;2.10;;;;;;;15.37;100.00;99777.84;5091496;28;20044;-47
2023/10/30 00:57:50;;;;;;;5.10;1.80;;;;;;;15.37;100.00;99772.47;5091929;28;20059;-45
2023/10/30 01:00:19;;;;;;;5.10;1.70;;;;;;;15.40;100.00;99777.56;5091569;28;20370;-46
2023/10/30 01:02:47;;;;;;;4.90;1.95;;;;;;;15.40;100.00;99772.19;5091108;28;20059;-48
2023/10/30 01:05:16;;;;;;;6.68;1.92;;;;;;;15.41;100.00;99767.69;5091373;28;20048;-45
2023/10/30 01:07:45;;;;;;;4.13;1.73;;;;;;;15.42;100.00;99772.91;5091334;28;20097;-46
2023/10/30 01:10:15;;;;;;;5.45;2.00;;;;;;;15.39;100.00;99765.13;5091257;28;20414;-46
2023/10/30 01:12:43;;;;;;;6.40;1.85;;;;;;;15.41;100.00;99768.53;5091169;28;20408;-46
2023/10/30 01:15:12;;;;;;;5.95;2.17;;;;;;;15.37;100.00;99764.41;5091542;28;20050;-45
2023/10/30 01:17:40;;;;;;;3.97;1.70;;;;;;;15.34;100.00;99767.34;5092707;28;20052;-47
2023/10/30 01:20:10;;;;;;;7.07;1.88;;;;;;;15.31;100.00;99756.03;5092257;28;20070;-47
2023/10/30 01:22:38;;;;;;;6.35;1.95;;;;;;;15.26;100.00;99759.13;5091526;28;20418;-47
2023/10/30 01:25:08;;;;;;;7.03;2.00;;;;;;;15.31;100.00;99758.72;5091296;28;20048;-50
2023/10/30 01:27:38;;;;;;;7.47;2.00;;;;;;;15.29;100.00;99761.56;5090688;28;20055;-45
2023/10/30 01:30:08;;;;;;;7.15;2.15;;;;;;;15.29;100.00;99758.00;5090972;28;20142;-46
2023/10/30 01:32:36;;;;;;;5.72;1.70;;;;;;;15.29;100.00;99758.88;5090942;28;20052;-46
2023/10/30 01:35:05;;;;;;;5.30;1.70;;;;;;;15.30;100.00;99757.03;5092932;28;20079;-47
2023/10/30 01:37:33;;;;;;;7.18;2.25;;;;;;;15.26;100.00;99756.47;5095225;28;20066;-46
2023/10/30 01:40:02;;;;;;;5.35;1.60;;;;;;;15.26;100.00;99761.84;5094690;28;20170;-47
2023/10/30 01:42:31;;;;;;;6.32;1.77;;;;;;;15.34;100.00;99755.75;5094874;28;20052;-45
2023/10/30 01:45:01;;;;;;;6.97;1.75;;;;;;;15.35;100.00;99758.34;5094930;28;20055;-46
2023/10/30 01:47:29;;;;;;;5.45;1.80;;;;;;;15.28;100.00;99754.47;5094682;28;20521;-45
2023/10/30 01:49:58;;;;;;;4.65;1.98;;;;;;;15.24;100.00;99755.72;5094648;28;20055;-46
2023/10/30 01:52:29;;;;;;;5.90;1.63;;;;;;;15.29;100.00;99758.00;5094582;28;20055;-45
2023/10/30 01:54:58;;;;;;;5.60;1.70;;;;;;;15.30;100.00;99749.81;5094519;28;20040;-46
2023/10/30 01:57:28;;;;;;;4.85;1.75;;;;;;;15.30;100.00;99765.09;5093482;28;20040;-46
2023/10/30 01:59:57;;;;;;;6.15;2.03;;;;;;;15.24;100.00;99754.88;5094684;28;20498;-45
2023/10/30 02:02:30;;;;;;;5.38;2.03;;;;;;;15.21;100.00;99756.00;5094303;28;20048;-47
2023/10/30 02:04:58;;;;;;;5.97;2.03;;;;;;;15.25;100.00;99751.19;5094283;28;20048;-46
2023/10/30 02:07:26;;;;;;;4.72;1.60;;;;;;;15.22;100.00;99746.94;5094351;28;20101;-47
2023/10/30 02:09:55;;;;;;;5.90;2.00;;;;;;;15.18;100.00;99740.16;5094561;28;20044;-45
2023/10/30 02:12:24;;;;;;;5.82;2.10;;;;;;;15.15;100.00;99738.59;5094265;28;20087;-48
2023/10/30 02:14:52;;;;;;;6.15;2.13;;;;;;;15.17;100.00;99741.13;5094240;28;20417;-46
2023/10/30 02:17:20;;;;;;;5.65;1.83;;;;;;;15.18;100.00;99729.41;5094267;28;20048;-45
2023/10/30 02:19:50;;;;;;;5.30;1.80;;;;;;;15.14;100.00;99736.00;5093920;28;20043;-45
2023/10/30 02:22:18;;;;;;;4.60;1.80;;;;;;;15.13;100.00;99734.31;5094061;28;20062;-45
2023/10/30 02:24:47;;;;;;;5.97;1.80;;;;;;;15.10;100.00;99743.50;5094043;28;20052;-46
2023/10/30 02:27:17;;;;;;;4.10;1.77;;;;;;;15.08;100.00;99750.00;5093986;28;20090;-47
2023/10/30 02:29:45;;;;;;;4.03;1.55;;;;;;;15.09;100.00;99738.25;5093671;28;20052;-46
2023/10/30 02:32:15;;;;;;;4.03;1.90;;;;;;;15.15;100.00;99743.09;5093559;28;20048;-45
2023/10/30 02:34:43;;;;;;;6.25;2.05;;;;;;;15.14;100.00;99744.91;5093495;28;20055;-45
2023/10/30 02:37:12;;;;;;;4.97;1.80;;;;;;;15.15;100.00;99749.34;5093736;28;20550;-47
2023/10/30 02:39:40;;;;;;;7.22;2.00;;;;;;;15.15;100.00;99752.03;5093746;28;20432;-46
2023/10/30 02:42:09;;;;;;;4.60;1.70;;;;;;;15.18;100.00;99748.22;5093715;28;20059;-47
2023/10/30 02:44:39;;;;;;;5.05;1.75;;;;;;;15.19;100.00;99752.59;5093312;28;20457;-47
2023/10/30 02:47:07;;;;;;;4.63;1.80;;;;;;;15.20;100.00;99756.13;5093206;28;20138;-45
2023/10/30 02:49:36;;;;;;;4.53;1.52;;;;;;;15.21;100.00;99756.00;5093884;28;20398;-45
2023/10/30 02:52:04;;;;;;;5.22;1.75;;;;;;;15.22;100.00;99757.69;5093706;28;20052;-46
2023/10/30 02:54:33;;;;;;;5.60;2.05;;;;;;;15.25;100.00;99757.44;5093569;28;20457;-47
2023/10/30 02:57:01;;;;;;;3.63;1.58;;;;;;;15.20;100.00;99742.69;5093288;28;20047;-46
2023/10/30 02:59:30;;;;;;;4.25;1.55;;;;;;;15.25;100.00;99760.13;5093194;28;20150;-47
2023/10/30 03:01:59;;;;;;;5.65;1.90;;;;;;;15.24;100.00;99755.72;5093238;28;20470;-46
2023/10/30 03:04:28;;;;;;;6.47;1.90;;;;;;;15.25;100.00;99768.19;5093281;28;20051;-47
2023/10/30 03:06:58;;;;;;;5.07;1.65;;;;;;;15.26;100.00;99759.13;5093166;28;20559;-45
2023/10/30 03:09:27;;;;;;;6.50;1.85;;;;;;;15.26;100.00;99756.47;5092952;28;20661;-46
2023/10/30 03:11:56;;;;;;;4.85;1.85;;;;;;;15.27;100.00;99760.00;5093028;28;20052;-46
2023/10/30 03:14:25;;;;;;;4.88;1.80;;;;;;;15.25;100.00;99762.81;5093333;28;20094;-47
2023/10/30 03:16:53;;;;;;;7.53;1.80;;;;;;;15.20;100.00;99769.56;5093027;28;20090;-45
2023/10/30 03:19:23;;;;;;;5.15;1.75;;;;;;;15.20;100.00;99761.50;5092806;28;20438;-46
2023/10/30 03:21:51;;;;;;;6.25;1.90;;;;;;;15.16;100.00;99753.72;5092596;28;20048;-46
2023/10/30 03:24:21;;;;;;;5.05;1.75;;;;;;;15.16;100.00;99763.63;5092861;28;20040;-45
2023/10/30 03:26:50;;;;;;;6.05;2.05;;;;;;;15.16;100.00;99758.25;5092913;28;20124;-47
2023/10/30 03:29:19;;;;;;;6.93;2.22;;;;;;;15.12;100.00;99768.38;5092498;28;20048;-46
2023/10/30 03:31:48;;;;;;;4.72;1.80;;;;;;;15.15;100.00;99767.25;5092976;28;20090;-45
2023/10/30 03:34:18;;;;;;;4.40;1.75;;;;;;;15.20;100.00;99764.19;5092702;28;20093;-46
2023/10/30 03:36:48;;;;;;;4.50;1.50;;;;;;;15.16;100.00;99775.22;5092850;28;20109;-46
2023/10/30 03:39:16;;;;;;;7.10;1.90;;;;;;;15.13;100.00;99769.22;5092112;28;20504;-46
2023/10/30 03:41:45;;;;;;;5.35;1.80;;;;;;;15.16;100.00;99772.53;5092674;28;20055;-45
2023/10/30 03:44:13;;;;;;;6.65;1.77;;;;;;;15.16;100.00;99766.31;5092439;28;20040;-46
2023/10/30 03:46:42;;;;;;;5.30;1.70;;;;;;;15.14;100.00;99766.41;5092652;28;20131;-45
2023/10/30 03:49:10;;;;;;;4.05;1.90;;;;;;;15.13;100.00;99763.84;5092362;28;20541;-46
2023/10/30 03:51:38;;;;;;;6.72;1.83;;;;;;;15.13;100.00;99753.13;5092422;28;20044;-45
2023/10/30 03:54:09;;;;;;;7.97;2.38;;;;;;;15.15;100.00;99757.41;5092202;28;20051;-46
2023/10/30 03:56:37;;;;;;;6.80;1.83;;;;;;;15.03;100.00;99760.28;5091720;28;20087;-46
2023/10/30 03:59:06;;;;;;;4.82;1.80;;;;;;;15.00;100.00;99761.41;5092167;28;20409;-46
2023/10/30 04:01:35;;;;;;;4.28;1.80;;;;;;;15.05;100.00;99756.47;5092227;28;20047;-47
2023/10/30 04:04:07;;;;;;;5.70;1.80;;;;;;;15.08;100.00;99755.38;5092056;28;20117;-46
2023/10/30 04:06:36;;;;;;;3.67;1.50;;;;;;;15.10;100.00;99753.41;5092173;28;20437;-46
2023/10/30 04:09:05;;;;;;;5.30;1.70;;;;;;;15.12;100.00;99754.09;5092175;28;20105;-45
2023/10/30 04:11:35;;;;;;;5.72;1.80;;;;;;;15.05;100.00;99752.94;5092039;28;20079;-45
2023/10/30 04:14:04;;;;;;;6.57;2.00;;;;;;;15.02;100.00;99753.19;5092146;28;20048;-46
2023/10/30 04:16:32;;;;;;;4.57;1.80;;;;;;;15.03;100.00;99752.22;5091702;28;20520;-46
2023/10/30 04:19:00;;;;;;;8.52;1.95;;;;;;;15.03;100.00;99760.28;5091662;28;20051;-47
2023/10/30 04:21:29;;;;;;;5.65;2.00;;;;;;;15.03;100.00;99762.97;5091915;28;20052;-45
2023/10/30 04:23:58;;;;;;;6.13;1.60;;;;;;;14.99;100.00;99761.53;5091765;28;20062;-46
2023/10/30 04:26:27;;;;;;;4.97;1.83;;;;;;;15.01;100.00;99759.56;5091817;28;20055;-46
2023/10/30 04:28:57;;;;;;;4.75;1.92;;;;;;;14.98;100.00;99754.47;5091574;28;20040;-45
2023/10/30 04:31:25;;;;;;;3.95;1.52;;;;;;;14.99;100.00;99750.78;5091511;28;20091;-46
2023/10/30 04:33:56;;;;;;;7.75;1.65;;;;;;;14.98;100.00;99749.09;5091323;28;21006;-45
2023/10/30 04:36:25;;;;;;;5.95;2.00;;;;;;;14.96;100.00;99751.03;5091536;28;20055;-45
2023/10/30 04:38:54;;;;;;;5.25;1.77;;;;;;;14.93;100.00;99754.00;5091352;28;20043;-45
2023/10/30 04:41:22;;;;;;;5.80;1.85;;;;;;;14.88;100.00;99752.56;5091273;28;20044;-46
2023/10/30 04:43:50;;;;;;;5.47;1.90;;;;;;;14.87;100.00;99753.56;5091321;28;20055;-46
2023/10/30 04:46:20;;;;;;;6.80;1.80;;;;;;;14.92;100.00;99754.97;5091641;28;20043;-44
2023/10/30 04:48:48;;;;;;;5.25;1.83;;;;;;;14.93;100.00;99754.00;5091186;28;20044;-47
2023/10/30 04:51:17;;;;;;;7.15;2.40;;;;;;;14.88;100.00;99755.25;5091388;28;20044;-46
2023/10/30 04:53:45;;;;;;;5.93;1.60;;;;;;;14.89;100.00;99745.38;5091362;28;20048;-46
2023/10/30 04:56:13;;;;;;;4.43;2.10;;;;;;;14.93;100.00;99749.47;5091434;28;20075;-46
2023/10/30 04:58:42;;;;;;;8.07;2.00;;;;;;;14.84;100.00;99752.94;5091083;28;20054;-47
2023/10/30 05:01:11;;;;;;;5.82;1.98;;;;;;;14.79;100.00;99758.72;5091268;28;20106;-45
2023/10/30 05:03:41;;;;;;;5.10;2.05;;;;;;;14.71;100.00;99765.72;5091177;28;20055;-46
2023/10/30 05:06:09;;;;;;;4.13;1.60;;;;;;;14.71;100.00;99758.53;5091141;28;20481;-46
2023/10/30 05:08:38;;;;;;;6.47;1.92;;;;;;;14.69;100.00;99765.00;5090897;28;20189;-47
2023/10/30 05:11:06;;;;;;;4.38;1.85;;;;;;;14.67;100.00;99769.63;5091199;28;20409;-45
2023/10/30 05:13:35;;;;;;;4.55;1.92;;;;;;;14.68;100.00;99758.78;5090895;28;20052;-47
2023/10/30 05:16:04;;;;;;;5.35;2.38;;;;;;;14.73;100.00;99753.00;5091400;28;20063;-47
2023/10/30 05:18:32;;;;;;;4.88;2.13;;;;;;;14.66;100.00;99749.16;5091059;28;20089;-46
2023/10/30 05:21:02;;;;;;;5.95;2.15;;;;;;;14.66;100.00;99757.19;5091095;28;20052;-46
2023/10/30 05:23:34;;;;;;;;;;;;;;;14.66;100.00;99760.72;5091210;28;20056;-45
2023/10/30 05:26:02;;;;;;;6.07;2.17;;;;;;;14.68;100.00;99772.22;5090741;28;20011;-47
2023/10/30 05:28:30;;;;;;;5.80;2.10;;;;;;;14.72;100.00;99776.31;5091296;28;20040;-47
2023/10/30 05:30:59;;;;;;;5.45;2.20;;;;;;;14.72;100.00;99779.00;5090771;28;20178;-46
2023/10/30 05:33:27;;;;;;;8.95;2.70;;;;;;;14.71;100.00;99780.00;5094700;28;20047;-46
2023/10/30 05:35:56;;;;;;;7.03;2.17;;;;;;;14.72;100.00;99779.00;5091005;28;20093;-46
2023/10/30 05:38:26;;;;;;;5.10;1.90;;;;;;;14.70;100.00;99783.66;5090704;28;20056;-46
2023/10/30 05:40:54;;;;;;;4.88;2.10;;;;;;;14.69;100.00;99781.13;5091040;28;20112;-48
2023/10/30 05:43:22;;;;;;;8.38;2.50;;;;;;;14.65;100.00;99791.25;5092101;28;20497;-46
2023/10/30 05:45:50;;;;;;;4.50;2.22;;;;;;;14.66;100.00;99792.94;5092092;28;20048;-46
2023/10/30 05:48:19;;;;;;;6.00;2.20;;;;;;;14.66;100.00;99792.09;5092113;28;20097;-46
2023/10/30 05:50:47;;;;;;;11.13;2.80;;;;;;;14.66;100.00;99801.00;5091669;28;20040;-44
2023/10/30 05:53:16;;;;;;;11.23;4.50;;;;;;;14.68;100.00;99801.75;5091534;28;20044;-46
2023/10/30 05:55:45;;;;;;;10.13;3.40;;;;;;;14.72;100.00;99805.84;5092109;28;20044;-45
2023/10/30 05:58:14;;;;;;;9.52;3.33;;;;;;;14.72;100.00;99805.84;5091292;28;20078;-45
2023/10/30 06:00:43;;;;;;;8.00;2.47;;;;;;;14.73;100.00;99809.38;5089513;28;20102;-46
2023/10/30 06:03:13;;;;;;;6.57;2.42;;;;;;;14.72;100.00;99818.44;5091019;28;20048;-45
2023/10/30 06:05:42;;;;;;;10.50;2.60;;;;;;;14.74;100.00;99811.09;5090765;28;20043;-46
2023/10/30 06:08:10;;;;;;;5.22;2.47;;;;;;;14.71;100.00;99817.56;5090989;28;20374;-45
2023/10/30 06:10:39;;;;;;;7.13;2.33;;;;;;;14.70;100.00;99821.25;5090431;28;20399;-45
2023/10/30 06:13:09;;;;;;;6.80;2.60;;;;;;;14.73;100.00;99822.81;5090572;28;20048;-47
2023/10/30 06:15:37;;;;;;;6.07;2.10;;;;;;;14.72;100.00;99824.66;5090675;28;20043;-46
2023/10/30 06:18:05;;;;;;;6.15;2.20;;;;;;;14.77;100.00;99830.50;5090732;28;20044;-46
2023/10/30 06:20:34;;;;;;;5.43;2.55;;;;;;;14.83;100.00;99821.91;5091647;28;20044;-47
2023/10/30 06:23:03;;;;;;;7.72;2.65;;;;;;;14.95;100.00;99821.84;5091702;28;20054;-45
2023/10/30 06:25:31;;;;;;;4.80;2.05;;;;;;;15.09;100.00;99821.53;5094290;28;20116;-46
2023/10/30 06:27:59;;;;;;;8.32;2.47;;;;;;;15.23;100.00;99818.50;5093824;28;20048;-46
2023/10/30 06:30:30;;;;;;;8.23;2.67;;;;;;;15.29;100.00;99826.03;5094048;28;20197;-47
2023/10/30 06:32:59;;;;;;;9.90;2.80;;;;;;;15.36;100.00;99829.06;5094044;28;20059;-46
2023/10/30 06:35:27;;;;;;;7.70;2.70;;;;;;;15.29;100.00;99828.72;5094188;28;20431;-47
2023/10/30 06:37:55;;;;;;;6.60;2.42;;;;;;;15.32;100.00;99828.44;5093817;28;20044;-46
2023/10/30 06:40:23;;;;;;;8.20;3.10;;;;;;;15.32;100.00;99831.13;5093779;28;20127;-45
2023/10/30 06:42:52;;;;;;;5.70;2.75;;;;;;;15.39;100.00;99831.47;5093672;28;20048;-47
2023/10/30 06:45:20;;;;;;;6.43;2.72;;;;;;;15.43;100.00;99833.75;5093414;28;20044;-45
2023/10/30 06:47:50;;;;;;;9.20;2.97;;;;;;;15.46;100.00;99841.56;5093537;28;20097;-45
2023/10/30 06:50:18;;;;;;;9.82;3.03;;;;;;;15.54;100.00;99835.53;5093757;28;20044;-46
2023/10/30 06:52:47;;;;;;;5.95;2.40;;;;;;;15.62;100.00;99848.31;5093957;28;20059;-45
2023/10/30 06:55:16;;;;;;;9.77;2.80;;;;;;;15.73;100.00;99853.63;5093621;28;20048;-46
2023/10/30 06:57:44;;;;;;;8.02;2.50;;;;;;;15.83;100.00;99853.66;5092940;28;20189;-45
2023/10/30 07:00:14;;;;;;;7.60;2.45;;;;;;;15.89;100.00;99843.19;5093755;28;20048;-45
2023/10/30 07:02:43;;;;;;;9.45;2.50;;;;;;;16.00;100.00;99845.75;5093229;28;20105;-45
2023/10/30 07:05:13;;;;;;;6.25;2.45;;;;;;;15.95;100.00;99861.47;5092991;28;20052;-45
2023/10/30 07:07:41;;;;;;;6.18;2.33;;;;;;;15.90;100.00;99862.88;5093226;28;20040;-44
2023/10/30 07:10:10;;;;;;;7.40;2.20;;;;;;;15.90;100.00;99855.63;5092951;28;20048;-45
2023/10/30 07:12:38;;;;;;;7.18;2.33;;;;;;;16.01;100.00;99858.22;5092682;28;20043;-44
2023/10/30 07:15:08;;;;;;;6.85;2.35;;;;;;;16.12;100.00;99843.84;5092920;28;20800;-44
2023/10/30 07:17:36;;;;;;;8.32;2.80;;;;;;;16.26;100.00;99850.66;5092874;28;20044;-43
2023/10/30 07:20:06;;;;;;;7.47;2.38;;;;;;;16.33;100.00;99841.06;5091967;28;20058;-44
2023/10/30 07:22:36;;;;;;;8.70;2.40;;;;;;;16.40;100.00;99850.25;5092644;28;20170;-45
2023/10/30 07:25:06;;;;;;;6.00;2.25;;;;;;;16.54;100.00;99855.25;5092673;28;20056;-45
2023/10/30 07:27:34;;;;;;;7.85;2.65;;;;;;;16.59;100.00;99852.97;5093397;28;20051;-46
2023/10/30 07:30:03;;;;;;;5.65;2.45;;;;;;;16.75;100.00;99862.38;5092579;28;20036;-45
2023/10/30 07:32:31;;;;;;;5.78;2.33;;;;;;;16.81;100.00;99864.53;5092407;28;20119;-46
2023/10/30 07:35:00;;;;;;;6.75;2.25;;;;;;;16.81;100.00;99851.91;5092393;28;20052;-45
2023/10/30 07:37:29;;;;;;;4.20;2.20;;;;;;;16.96;100.00;99862.22;5092786;28;20408;-46
2023/10/30 07:39:59;;;;;;;5.88;1.95;;;;;;;17.06;100.00;99861.22;5092704;28;20097;-45
2023/10/30 07:42:27;;;;;;;7.32;2.00;;;;;;;17.15;100.00;99867.59;5092429;28;20171;-45
2023/10/30 07:44:55;;;;;;;6.72;2.20;;;;;;;17.25;100.00;99864.91;5092755;28;20047;-46
2023/10/30 07:47:24;;;;;;;5.57;2.35;;;;;;;17.39;100.00;99861.78;5094125;28;20044;-46
2023/10/30 07:50:10;;;;;;;6.70;2.10;;;;;;;17.45;100.00;99864.72;5092311;28;20484;-46
2023/10/30 07:52:39;;;;;;;6.78;2.72;;;;;;;17.51;100.00;99870.53;5092472;28;20052;-45
2023/10/30 07:55:12;;;;;;;4.35;1.80;;;;;;;17.56;100.00;99863.69;5092016;28;20048;-46
2023/10/30 07:57:42;;;;;;;6.95;2.28;;;;;;;17.57;100.00;99865.41;5092335;28;20052;-46
2023/10/30 08:00:13;;;;;;;5.85;2.28;;;;;;;17.63;100.00;99859.41;5092212;28;20123;-46
2023/10/30 08:02:41;;;;;;;7.90;2.70;;;;;;;17.71;100.00;99867.66;5092002;28;20150;-45
2023/10/30 08:05:10;;;;;;;5.78;2.15;;;;;;;17.80;100.00;99870.47;5092647;28;20048;-45
2023/10/30 08:07:38;;;;;;;8.35;2.35;;;;;;;17.91;100.00;99872.97;5092333;28;20123;-45
2023/10/30 08:10:07;;;;;;;6.18;1.90;;;;;;;17.98;100.00;99876.78;5092375;28;20136;-45
2023/10/30 08:12:40;;;;;;;8.65;2.15;;;;;;;18.00;100.00;99872.94;5092184;28;20044;-45
2023/10/30 08:15:09;;;;;;;6.38;2.10;;;;;;;18.11;100.00;99869.19;5092401;28;20126;-46
2023/10/30 08:17:38;;;;;;;7.05;1.98;;;;;;;18.21;100.00;99864.59;5092088;28;20142;-46
2023/10/30 08:20:09;;;;;;;4.65;1.90;;;;;;;18.24;100.00;99858.91;5092272;28;20248;-45
2023/10/30 08:22:38;;;;;;;6.72;1.80;;;;;;;18.37;100.00;99863.09;5091572;28;20147;-45
2023/10/30 08:25:06;;;;;;;7.07;1.70;;;;;;;18.50;100.00;99858.16;5092013;28;20048;-46
2023/10/30 08:27:35;;;;;;;9.32;2.50;;;;;;;18.52;100.00;99850.75;5091801;28;20040;-45
2023/10/30 08:30:07;;;;;;;8.52;2.55;;;;;;;18.62;100.00;99843.44;5091582;28;20444;-45
2023/10/30 08:32:37;;;;;;;6.78;2.00;;;;;;;18.74;100.00;99850.34;5091880;28;20040;-45
2023/10/30 08:35:07;;;;;;;6.13;2.03;;;;;;;18.81;100.00;99848.72;5091653;28;20079;-47
2023/10/30 08:37:35;;;;;;;5.30;1.92;;;;;;;18.87;100.00;99850.81;5091586;28;20051;-46
2023/10/30 08:40:04;;;;;;;4.80;1.80;;;;;;;18.96;100.00;99848.19;5091654;28;20378;-46
2023/10/30 08:42:34;;;;;;;4.30;1.80;;;;;;;18.96;99.33;99842.78;5091070;28;20052;-45
2023/10/30 08:45:03;;;;;;;5.07;2.00;;;;;;;19.09;99.17;99837.81;5091394;28;20468;-45
2023/10/30 08:47:34;;;;;;;4.85;2.00;;;;;;;19.17;100.00;99835.19;5091537;28;20105;-47
2023/10/30 08:50:02;;;;;;;4.72;1.80;;;;;;;19.25;99.51;99835.25;5091131;28;20189;-45
2023/10/30 08:52:30;;;;;;;6.20;1.80;;;;;;;19.40;100.00;99839.06;5091178;28;20139;-46
2023/10/30 08:54:59;;;;;;;5.70;1.90;;;;;;;19.42;100.00;99834.34;5091171;28;20153;-46
2023/10/30 08:57:27;;;;;;;6.07;1.92;;;;;;;19.53;97.85;99835.09;5091705;28;20048;-46
2023/10/30 08:59:55;;;;;;;7.43;2.30;;;;;;;19.60;98.92;99830.78;5091005;28;20123;-46
2023/10/30 09:02:27;;;;;;;9.43;3.00;;;;;;;19.70;98.54;99836.91;5091246;28;20051;-48
2023/10/30 09:04:57;;;;;;;5.85;2.05;;;;;;;19.76;98.27;99838.13;5091149;28;20040;-45
2023/10/30 09:07:26;;;;;;;8.18;2.00;;;;;;;19.64;99.18;99821.31;5090923;28;20056;-47
2023/10/30 09:09:54;;;;;;;8.00;2.30;;;;;;;19.80;98.71;99821.41;5091001;28;20408;-46
2023/10/30 09:12:23;;;;;;;5.47;2.58;;;;;;;19.80;96.41;99829.53;5090901;28;20048;-45
2023/10/30 09:14:52;;;;;;;7.50;2.30;;;;;;;19.88;97.10;99826.88;5090745;28;20123;-48
2023/10/30 09:17:20;;;;;;;7.68;2.15;;;;;;;19.98;97.42;99826.75;5091000;28;20479;-46
2023/10/30 09:19:49;;;;;;;7.22;2.28;;;;;;;20.01;97.28;99816.44;5090632;28;20412;-49
2023/10/30 09:22:20;;;;;;;5.50;1.92;;;;;;;20.00;97.99;99832.84;5090344;28;20044;-45
2023/10/30 09:24:48;;;;;;;5.40;2.00;;;;;;;19.93;99.41;99838.03;5090945;28;20055;-46
2023/10/30 09:27:16;;;;;;;5.95;2.17;;;;;;;20.06;97.69;99834.03;5090761;28;20056;-46
2023/10/30 09:29:47;;;;;;;5.65;1.83;;;;;;;20.23;96.40;99833.06;5090576;28;20079;-45
2023/10/30 09:32:15;;;;;;;6.75;2.10;;;;;;;20.35;95.42;99837.16;5090610;28;20044;-45
2023/10/30 09:34:44;;;;;;;3.38;1.67;;;;;;;20.49;95.47;99843.84;5090531;28;20456;-44
2023/10/30 09:37:12;;;;;;;8.07;2.10;;;;;;;20.48;97.17;99843.00;5090726;28;20100;-48
2023/10/30 09:39:42;;;;;;;5.60;1.80;;;;;;;20.62;95.20;99846.06;5090572;28;20047;-45
2023/10/30 09:42:10;;;;;;;6.82;1.90;;;;;;;20.84;94.72;99829.16;5090474;28;20048;-45
2023/10/30 09:44:39;;;;;;;14.00;1.77;;;;;;;20.75;96.04;99828.34;5090267;28;20113;-46
2023/10/30 09:47:07;;;;;;;6.38;1.58;;;;;;;20.73;96.23;99821.34;5090269;28;20520;-46
2023/10/30 09:49:36;;;;;;;9.43;1.80;;;;;;;20.69;95.39;99814.59;5090596;28;20048;-45
2023/10/30 09:52:09;;;;;;;5.38;1.70;;;;;;;20.71;94.76;99820.69;5090330;28;20266;-45
2023/10/30 09:54:38;;;;;;;8.20;1.60;;;;;;;20.57;97.02;99831.19;5090455;28;20139;-46
2023/10/30 09:57:09;;;;;;;33.08;3.10;;;;;;;20.49;97.90;99817.63;5094617;28;20113;-45
2023/10/30 09:59:38;;;;;;;18.48;2.35;;;;;;;20.51;97.94;99825.56;5094398;28;20048;-47
2023/10/30 10:02:07;;;;;;;6.78;1.60;;;;;;;20.55;97.79;99816.94;5094357;28;20540;-47
2023/10/30 10:04:38;;;;;;;5.38;1.50;;;;;;;20.68;97.57;99804.78;5094624;28;20140;-47
2023/10/30 10:07:07;;;;;;;8.20;1.75;;;;;;;20.71;97.02;99816.13;5094459;28;20079;-48
2023/10/30 10:09:35;;;;;;;10.18;1.80;;;;;;;20.84;96.78;99811.06;5093912;28;20565;-45
2023/10/30 10:12:21;;;;;;;7.40;1.50;;;;;;;20.86;95.96;99800.03;5094138;28;20048;-47
2023/10/30 10:14:50;;;;;;;5.90;1.50;;;;;;;20.85;94.80;99807.34;5094082;28;20076;-47
2023/10/30 10:17:18;;;;;;;4.65;1.38;;;;;;;20.93;95.52;99798.31;5094280;28;20047;-46
2023/10/30 10:19:47;;;;;;;7.13;1.70;;;;;;;20.88;96.63;99810.72;5093755;28;20401;-45
2023/10/30 10:22:28;;;;;;;10.23;2.25;;;;;;;20.78;97.49;99810.88;5093807;28;20052;-46
2023/10/30 10:25:00;;;;;;;7.20;1.58;;;;;;;20.61;96.89;99817.28;5093608;28;20056;-46
2023/10/30 10:27:30;;;;;;;8.55;1.85;;;;;;;20.63;98.00;99807.97;5093902;28;20101;-47
2023/10/30 10:29:59;;;;;;;13.93;2.17;;;;;;;20.54;98.76;99820.66;5093835;28;20048;-47
2023/10/30 10:32:28;;;;;;;9.57;1.50;;;;;;;20.57;98.60;99808.66;5093889;28;20052;-45
2023/10/30 10:34:58;;;;;;;5.22;1.70;;;;;;;20.63;98.02;99805.25;5093620;28;20060;-45
2023/10/30 10:37:26;;;;;;;6.55;1.65;;;;;;;20.64;98.81;99806.09;5093552;28;20048;-45
2023/10/30 10:39:56;;;;;;;5.57;1.75;;;;;;;20.80;96.02;99809.69;5092532;28;20409;-45
2023/10/30 10:42:25;;;;;;;6.57;1.50;;;;;;;20.90;97.07;99814.09;5093710;28;20048;-45
2023/10/30 10:44:56;;;;;;;5.10;1.70;;;;;;;20.88;97.58;99806.13;5093572;28;20051;-45
2023/10/30 10:47:25;;;;;;;5.40;1.67;;;;;;;20.90;96.68;99798.69;5093523;28;20095;-47
2023/10/30 10:49:53;;;;;;;7.18;1.70;;;;;;;20.89;97.27;99807.81;5093299;28;20044;-45
2023/10/30 10:52:21;;;;;;;4.30;1.42;;;;;;;20.91;96.51;99813.06;5093514;28;20055;-46
2023/10/30 10:54:57;;;;;;;4.82;1.15;;;;;;;20.94;96.79;99810.00;5093538;28;20067;-46
2023/10/30 10:57:28;;;;;;;4.88;1.63;;;;;;;20.92;96.40;99810.19;5093454;28;20052;-46
2023/10/30 11:00:03;;;;;;;8.50;1.88;;;;;;;20.88;95.38;99808.00;5093331;28;20196;-46
2023/10/30 11:02:39;;;;;;;4.55;1.52;;;;;;;20.91;93.68;99800.38;5093117;28;20459;-46
2023/10/30 11:05:10;;;;;;;4.70;1.63;;;;;;;20.99;94.38;99802.22;5093485;28;20409;-45
2023/10/30 11:07:47;;;;;;;6.53;1.73;;;;;;;21.00;93.86;99787.66;5092649;28;20124;-46
2023/10/30 11:10:22;;;;;;;3.63;1.45;;;;;;;20.99;94.13;99789.53;5093311;28;20055;-47
2023/10/30 11:13:00;;;;;;;5.00;1.60;;;;;;;21.04;94.50;99787.16;5093178;28;20079;-46
2023/10/30 11:15:34;;;;;;;4.78;1.48;;;;;;;20.96;95.16;99791.75;5093105;28;20427;-47
2023/10/30 11:18:17;;;;;;;4.00;1.40;;;;;;;21.04;93.57;99795.28;5093079;28;20044;-46
2023/10/30 11:20:46;;;;;;;3.70;1.35;;;;;;;21.08;94.20;99802.06;5092961;28;20438;-46
2023/10/30 11:23:56;;;;;;;2.80;1.40;;;;;;;21.14;94.69;99785.13;5092805;28;20075;-45
2023/10/30 11:26:39;;;;;;;4.97;1.60;;;;;;;21.17;93.73;99777.66;5090372;28;20055;-46
2023/10/30 11:29:12;;;;;;;4.10;1.40;;;;;;;21.19;92.19;99773.75;5092725;28;20044;-47
2023/10/30 11:32:03;;;;;;;;;;;;;;;21.25;93.28;99769.50;5093312;28;20048;-46
2023/10/30 11:34:33;;;;;;;4.68;1.40;;;;;;;21.25;91.34;99766.78;5092724;28;20354;-46
2023/10/30 11:37:10;;;;;;;4.85;1.58;;;;;;;21.37;91.03;99768.16;5092609;28;20143;-45